sensor_id;sensor_type;location;lat;lon;timestamp;P1;durP1;ratioP1;P2;durP2;ratioP2
55575;SDS011;41437;45.478;9.116;2023-02-17T00:02:48;25.33;;;15.43;;
55575;SDS011;41437;45.478;9.116;2023-02-17T00:05:50;22.58;;;15.05;;
55575;SDS011;41437;45.478;9.116;2023-02-17T00:08:52;20.00;;;13.60;;
55575;SDS011;41437;45.478;9.116;2023-02-17T00:12:00;20.23;;;14.32;;
55575;SDS011;41437;45.478;9.116;2023-02-17T00:15:02;21.27;;;14.65;;
55575;SDS011;41437;45.478;9.116;2023-02-17T00:18:04;21.38;;;14.45;;
55575;SDS011;41437;45.478;9.116;2023-02-17T00:21:12;19.85;;;14.50;;
55575;SDS011;41437;45.478;9.116;2023-02-17T00:24:16;19.02;;;13.48;;
55575;SDS011;41437;45.478;9.116;2023-02-17T00:27:19;21.80;;;14.57;;
55575;SDS011;41437;45.478;9.116;2023-02-17T00:30:20;20.33;;;14.68;;
55575;SDS011;41437;45.478;9.116;2023-02-17T00:33:22;19.17;;;13.65;;
55575;SDS011;41437;45.478;9.116;2023-02-17T00:36:24;20.58;;;14.55;;
55575;SDS011;41437;45.478;9.116;2023-02-17T00:39:26;19.33;;;14.05;;
55575;SDS011;41437;45.478;9.116;2023-02-17T00:42:30;22.38;;;14.77;;
55575;SDS011;41437;45.478;9.116;2023-02-17T00:45:32;22.30;;;14.70;;
55575;SDS011;41437;45.478;9.116;2023-02-17T00:48:34;19.83;;;14.88;;
55575;SDS011;41437;45.478;9.116;2023-02-17T00:51:35;24.92;;;14.98;;
55575;SDS011;41437;45.478;9.116;2023-02-17T00:54:37;21.88;;;14.93;;
55575;SDS011;41437;45.478;9.116;2023-02-17T00:57:41;22.95;;;14.57;;
55575;SDS011;41437;45.478;9.116;2023-02-17T01:00:42;20.42;;;14.70;;
55575;SDS011;41437;45.478;9.116;2023-02-17T01:03:44;19.08;;;14.40;;
55575;SDS011;41437;45.478;9.116;2023-02-17T01:06:46;20.90;;;14.45;;
55575;SDS011;41437;45.478;9.116;2023-02-17T01:09:47;21.40;;;14.75;;
55575;SDS011;41437;45.478;9.116;2023-02-17T01:12:51;20.85;;;14.30;;
55575;SDS011;41437;45.478;9.116;2023-02-17T01:15:52;21.02;;;14.15;;
55575;SDS011;41437;45.478;9.116;2023-02-17T01:18:54;19.75;;;13.70;;
55575;SDS011;41437;45.478;9.116;2023-02-17T01:21:55;18.70;;;13.27;;
55575;SDS011;41437;45.478;9.116;2023-02-17T01:24:57;19.60;;;13.88;;
55575;SDS011;41437;45.478;9.116;2023-02-17T01:28:00;23.27;;;15.32;;
55575;SDS011;41437;45.478;9.116;2023-02-17T01:31:03;21.15;;;14.52;;
55575;SDS011;41437;45.478;9.116;2023-02-17T01:34:06;21.95;;;14.40;;
55575;SDS011;41437;45.478;9.116;2023-02-17T01:37:07;20.50;;;13.95;;
55575;SDS011;41437;45.478;9.116;2023-02-17T01:40:10;20.02;;;14.02;;
55575;SDS011;41437;45.478;9.116;2023-02-17T01:46:18;19.88;;;13.45;;
55575;SDS011;41437;45.478;9.116;2023-02-17T01:49:23;18.98;;;13.43;;
55575;SDS011;41437;45.478;9.116;2023-02-17T01:52:30;17.23;;;12.57;;
55575;SDS011;41437;45.478;9.116;2023-02-17T01:55:31;18.38;;;13.05;;
55575;SDS011;41437;45.478;9.116;2023-02-17T01:58:36;19.63;;;12.63;;
55575;SDS011;41437;45.478;9.116;2023-02-17T02:01:41;19.75;;;12.90;;
55575;SDS011;41437;45.478;9.116;2023-02-17T02:04:43;19.48;;;12.52;;
55575;SDS011;41437;45.478;9.116;2023-02-17T02:07:49;19.55;;;13.95;;
55575;SDS011;41437;45.478;9.116;2023-02-17T02:10:52;17.97;;;12.70;;
55575;SDS011;41437;45.478;9.116;2023-02-17T02:13:55;19.85;;;13.27;;
55575;SDS011;41437;45.478;9.116;2023-02-17T02:16:59;18.77;;;13.05;;
55575;SDS011;41437;45.478;9.116;2023-02-17T02:23:57;16.33;;;12.25;;
55575;SDS011;41437;45.478;9.116;2023-02-17T02:31:07;19.20;;;12.40;;
55575;SDS011;41437;45.478;9.116;2023-02-17T02:34:19;18.95;;;13.13;;
55575;SDS011;41437;45.478;9.116;2023-02-17T02:37:23;19.90;;;13.75;;
55575;SDS011;41437;45.478;9.116;2023-02-17T02:40:28;21.23;;;13.10;;
55575;SDS011;41437;45.478;9.116;2023-02-17T02:43:34;19.58;;;11.88;;
55575;SDS011;41437;45.478;9.116;2023-02-17T02:46:35;18.42;;;12.52;;
55575;SDS011;41437;45.478;9.116;2023-02-17T02:49:38;18.65;;;13.35;;
55575;SDS011;41437;45.478;9.116;2023-02-17T02:52:41;18.88;;;13.68;;
55575;SDS011;41437;45.478;9.116;2023-02-17T02:55:56;19.98;;;13.93;;
55575;SDS011;41437;45.478;9.116;2023-02-17T02:59:08;19.48;;;13.13;;
55575;SDS011;41437;45.478;9.116;2023-02-17T03:02:21;19.48;;;13.68;;
55575;SDS011;41437;45.478;9.116;2023-02-17T03:05:35;23.02;;;14.73;;
55575;SDS011;41437;45.478;9.116;2023-02-17T03:08:46;21.30;;;15.00;;
55575;SDS011;41437;45.478;9.116;2023-02-17T03:11:51;23.52;;;15.35;;
55575;SDS011;41437;45.478;9.116;2023-02-17T03:14:59;24.23;;;16.83;;
55575;SDS011;41437;45.478;9.116;2023-02-17T03:18:04;26.15;;;16.38;;
55575;SDS011;41437;45.478;9.116;2023-02-17T03:21:08;27.52;;;18.27;;
55575;SDS011;41437;45.478;9.116;2023-02-17T03:24:15;24.98;;;17.25;;
55575;SDS011;41437;45.478;9.116;2023-02-17T03:27:17;28.17;;;17.90;;
55575;SDS011;41437;45.478;9.116;2023-02-17T03:30:19;26.45;;;18.40;;
55575;SDS011;41437;45.478;9.116;2023-02-17T03:33:20;27.63;;;18.38;;
55575;SDS011;41437;45.478;9.116;2023-02-17T03:36:23;26.02;;;18.00;;
55575;SDS011;41437;45.478;9.116;2023-02-17T03:39:25;25.02;;;17.88;;
55575;SDS011;41437;45.478;9.116;2023-02-17T03:42:27;29.10;;;17.92;;
55575;SDS011;41437;45.478;9.116;2023-02-17T03:45:29;28.92;;;17.52;;
55575;SDS011;41437;45.478;9.116;2023-02-17T03:48:30;23.92;;;17.00;;
55575;SDS011;41437;45.478;9.116;2023-02-17T03:51:33;27.55;;;16.80;;
55575;SDS011;41437;45.478;9.116;2023-02-17T03:54:35;24.90;;;16.92;;
55575;SDS011;41437;45.478;9.116;2023-02-17T03:57:37;24.35;;;17.83;;
55575;SDS011;41437;45.478;9.116;2023-02-17T04:00:38;24.20;;;16.73;;
55575;SDS011;41437;45.478;9.116;2023-02-17T04:03:40;28.75;;;17.85;;
55575;SDS011;41437;45.478;9.116;2023-02-17T04:06:43;26.65;;;16.58;;
55575;SDS011;41437;45.478;9.116;2023-02-17T04:09:45;25.40;;;17.05;;
55575;SDS011;41437;45.478;9.116;2023-02-17T04:12:46;24.38;;;16.92;;
55575;SDS011;41437;45.478;9.116;2023-02-17T04:15:47;28.35;;;17.55;;
55575;SDS011;41437;45.478;9.116;2023-02-17T04:18:49;23.55;;;16.83;;
55575;SDS011;41437;45.478;9.116;2023-02-17T04:21:52;25.65;;;17.95;;
55575;SDS011;41437;45.478;9.116;2023-02-17T04:24:54;25.13;;;16.33;;
55575;SDS011;41437;45.478;9.116;2023-02-17T04:27:55;26.92;;;17.13;;
55575;SDS011;41437;45.478;9.116;2023-02-17T04:30:57;25.73;;;17.50;;
55575;SDS011;41437;45.478;9.116;2023-02-17T04:33:59;17.95;;;13.00;;
55575;SDS011;41437;45.478;9.116;2023-02-17T04:37:02;25.10;;;15.80;;
55575;SDS011;41437;45.478;9.116;2023-02-17T04:40:04;21.42;;;16.10;;
55575;SDS011;41437;45.478;9.116;2023-02-17T04:43:09;29.85;;;17.83;;
55575;SDS011;41437;45.478;9.116;2023-02-17T04:46:10;27.38;;;18.48;;
55575;SDS011;41437;45.478;9.116;2023-02-17T04:49:12;23.73;;;16.92;;
55575;SDS011;41437;45.478;9.116;2023-02-17T04:52:15;26.00;;;17.58;;
55575;SDS011;41437;45.478;9.116;2023-02-17T04:55:16;27.75;;;17.42;;
55575;SDS011;41437;45.478;9.116;2023-02-17T04:58:20;26.85;;;16.73;;
55575;SDS011;41437;45.478;9.116;2023-02-17T05:01:22;28.25;;;17.35;;
55575;SDS011;41437;45.478;9.116;2023-02-17T05:04:23;26.40;;;17.90;;
55575;SDS011;41437;45.478;9.116;2023-02-17T05:07:26;29.13;;;18.40;;
55575;SDS011;41437;45.478;9.116;2023-02-17T05:10:28;28.55;;;18.85;;
55575;SDS011;41437;45.478;9.116;2023-02-17T05:13:30;32.47;;;19.77;;
55575;SDS011;41437;45.478;9.116;2023-02-17T05:16:33;30.50;;;18.52;;
55575;SDS011;41437;45.478;9.116;2023-02-17T05:19:34;28.58;;;19.17;;
55575;SDS011;41437;45.478;9.116;2023-02-17T05:22:37;29.33;;;18.65;;
55575;SDS011;41437;45.478;9.116;2023-02-17T05:25:40;27.63;;;18.60;;
55575;SDS011;41437;45.478;9.116;2023-02-17T05:28:41;27.98;;;18.35;;
55575;SDS011;41437;45.478;9.116;2023-02-17T05:31:45;27.95;;;18.50;;
55575;SDS011;41437;45.478;9.116;2023-02-17T05:34:46;25.40;;;17.15;;
55575;SDS011;41437;45.478;9.116;2023-02-17T05:37:50;25.08;;;17.00;;
55575;SDS011;41437;45.478;9.116;2023-02-17T05:40:52;25.38;;;17.27;;
55575;SDS011;41437;45.478;9.116;2023-02-17T05:43:53;26.98;;;16.50;;
55575;SDS011;41437;45.478;9.116;2023-02-17T05:46:55;27.20;;;17.52;;
55575;SDS011;41437;45.478;9.116;2023-02-17T05:49:56;26.90;;;17.38;;
55575;SDS011;41437;45.478;9.116;2023-02-17T05:52:59;26.88;;;17.48;;
55575;SDS011;41437;45.478;9.116;2023-02-17T05:56:01;23.70;;;16.48;;
55575;SDS011;41437;45.478;9.116;2023-02-17T05:59:02;24.88;;;17.33;;
55575;SDS011;41437;45.478;9.116;2023-02-17T06:02:04;26.88;;;18.13;;
55575;SDS011;41437;45.478;9.116;2023-02-17T06:05:05;27.60;;;18.40;;
55575;SDS011;41437;45.478;9.116;2023-02-17T06:08:09;25.92;;;18.05;;
55575;SDS011;41437;45.478;9.116;2023-02-17T06:11:10;27.23;;;18.58;;
55575;SDS011;41437;45.478;9.116;2023-02-17T06:14:12;31.42;;;19.80;;
55575;SDS011;41437;45.478;9.116;2023-02-17T06:17:13;28.80;;;19.08;;
55575;SDS011;41437;45.478;9.116;2023-02-17T06:20:15;26.73;;;18.00;;
55575;SDS011;41437;45.478;9.116;2023-02-17T06:23:18;27.10;;;18.65;;
55575;SDS011;41437;45.478;9.116;2023-02-17T06:26:19;23.73;;;16.38;;
55575;SDS011;41437;45.478;9.116;2023-02-17T06:29:21;26.60;;;17.25;;
55575;SDS011;41437;45.478;9.116;2023-02-17T06:32:22;27.35;;;17.27;;
55575;SDS011;41437;45.478;9.116;2023-02-17T06:35:24;19.67;;;14.40;;
55575;SDS011;41437;45.478;9.116;2023-02-17T06:38:27;27.33;;;17.15;;
55575;SDS011;41437;45.478;9.116;2023-02-17T06:41:29;29.20;;;18.75;;
55575;SDS011;41437;45.478;9.116;2023-02-17T06:44:30;26.90;;;17.83;;
55575;SDS011;41437;45.478;9.116;2023-02-17T06:47:32;26.90;;;17.95;;
55575;SDS011;41437;45.478;9.116;2023-02-17T06:50:33;29.38;;;18.55;;
55575;SDS011;41437;45.478;9.116;2023-02-17T06:53:36;27.63;;;17.35;;
55575;SDS011;41437;45.478;9.116;2023-02-17T06:56:38;26.33;;;16.83;;
55575;SDS011;41437;45.478;9.116;2023-02-17T06:59:41;27.25;;;18.70;;
55575;SDS011;41437;45.478;9.116;2023-02-17T07:02:42;28.60;;;19.00;;
55575;SDS011;41437;45.478;9.116;2023-02-17T07:05:44;30.58;;;19.83;;
55575;SDS011;41437;45.478;9.116;2023-02-17T07:08:47;31.63;;;20.00;;
55575;SDS011;41437;45.478;9.116;2023-02-17T07:11:49;30.50;;;19.50;;
55575;SDS011;41437;45.478;9.116;2023-02-17T07:14:50;31.83;;;19.92;;
55575;SDS011;41437;45.478;9.116;2023-02-17T07:17:52;31.77;;;20.63;;
55575;SDS011;41437;45.478;9.116;2023-02-17T07:20:53;29.80;;;20.92;;
55575;SDS011;41437;45.478;9.116;2023-02-17T07:23:56;30.42;;;20.02;;
55575;SDS011;41437;45.478;9.116;2023-02-17T07:26:57;27.92;;;18.98;;
55575;SDS011;41437;45.478;9.116;2023-02-17T07:30:01;32.20;;;21.63;;
55575;SDS011;41437;45.478;9.116;2023-02-17T07:33:03;28.38;;;20.75;;
55575;SDS011;41437;45.478;9.116;2023-02-17T07:36:05;32.10;;;20.58;;
55575;SDS011;41437;45.478;9.116;2023-02-17T07:39:08;28.48;;;20.35;;
55575;SDS011;41437;45.478;9.116;2023-02-17T07:42:10;30.57;;;21.20;;
55575;SDS011;41437;45.478;9.116;2023-02-17T07:45:11;29.48;;;21.15;;
55575;SDS011;41437;45.478;9.116;2023-02-17T07:48:13;33.58;;;21.92;;
55575;SDS011;41437;45.478;9.116;2023-02-17T07:51:19;36.10;;;22.58;;
55575;SDS011;41437;45.478;9.116;2023-02-17T07:54:24;31.38;;;21.63;;
55575;SDS011;41437;45.478;9.116;2023-02-17T07:57:26;33.33;;;22.83;;
55575;SDS011;41437;45.478;9.116;2023-02-17T08:00:28;32.97;;;22.85;;
55575;SDS011;41437;45.478;9.116;2023-02-17T08:03:29;33.00;;;22.00;;
55575;SDS011;41437;45.478;9.116;2023-02-17T08:06:31;31.98;;;22.60;;
55575;SDS011;41437;45.478;9.116;2023-02-17T08:09:34;33.05;;;21.13;;
55575;SDS011;41437;45.478;9.116;2023-02-17T08:12:53;30.67;;;21.55;;
55575;SDS011;41437;45.478;9.116;2023-02-17T08:16:12;34.28;;;23.17;;
55575;SDS011;41437;45.478;9.116;2023-02-17T08:19:14;36.65;;;24.15;;
55575;SDS011;41437;45.478;9.116;2023-02-17T08:22:15;35.13;;;24.00;;
55575;SDS011;41437;45.478;9.116;2023-02-17T08:25:19;38.50;;;25.48;;
55575;SDS011;41437;45.478;9.116;2023-02-17T08:28:20;36.35;;;25.75;;
55575;SDS011;41437;45.478;9.116;2023-02-17T08:31:23;34.78;;;25.52;;
55575;SDS011;41437;45.478;9.116;2023-02-17T08:34:25;37.67;;;25.15;;
55575;SDS011;41437;45.478;9.116;2023-02-17T08:37:32;34.95;;;24.83;;
55575;SDS011;41437;45.478;9.116;2023-02-17T08:40:35;39.22;;;25.42;;
55575;SDS011;41437;45.478;9.116;2023-02-17T08:43:39;39.28;;;25.88;;
55575;SDS011;41437;45.478;9.116;2023-02-17T08:49:43;39.55;;;25.30;;
55575;SDS011;41437;45.478;9.116;2023-02-17T08:52:44;37.03;;;25.75;;
55575;SDS011;41437;45.478;9.116;2023-02-17T08:55:48;35.72;;;25.00;;
55575;SDS011;41437;45.478;9.116;2023-02-17T08:58:49;34.75;;;25.92;;
55575;SDS011;41437;45.478;9.116;2023-02-17T09:01:51;35.80;;;26.20;;
55575;SDS011;41437;45.478;9.116;2023-02-17T09:04:52;40.63;;;25.65;;
55575;SDS011;41437;45.478;9.116;2023-02-17T09:07:54;33.08;;;24.58;;
55575;SDS011;41437;45.478;9.116;2023-02-17T09:10:59;32.17;;;23.73;;
55575;SDS011;41437;45.478;9.116;2023-02-17T09:14:01;31.90;;;23.13;;
55575;SDS011;41437;45.478;9.116;2023-02-17T09:17:02;33.58;;;22.15;;
55575;SDS011;41437;45.478;9.116;2023-02-17T09:20:05;36.47;;;23.50;;
55575;SDS011;41437;45.478;9.116;2023-02-17T09:26:11;33.85;;;23.48;;
55575;SDS011;41437;45.478;9.116;2023-02-17T09:29:14;30.13;;;23.00;;
55575;SDS011;41437;45.478;9.116;2023-02-17T09:32:15;33.75;;;23.45;;
55575;SDS011;41437;45.478;9.116;2023-02-17T09:35:17;35.40;;;22.40;;
55575;SDS011;41437;45.478;9.116;2023-02-17T09:38:19;31.23;;;22.42;;
55575;SDS011;41437;45.478;9.116;2023-02-17T09:41:23;33.55;;;22.42;;
55575;SDS011;41437;45.478;9.116;2023-02-17T09:44:30;31.58;;;22.13;;
55575;SDS011;41437;45.478;9.116;2023-02-17T09:47:38;32.08;;;22.77;;
55575;SDS011;41437;45.478;9.116;2023-02-17T09:50:44;41.00;;;23.90;;
55575;SDS011;41437;45.478;9.116;2023-02-17T09:53:52;30.65;;;22.27;;
55575;SDS011;41437;45.478;9.116;2023-02-17T09:57:02;30.92;;;21.23;;
55575;SDS011;41437;45.478;9.116;2023-02-17T10:00:07;30.42;;;20.52;;
55575;SDS011;41437;45.478;9.116;2023-02-17T10:03:13;27.05;;;19.75;;
55575;SDS011;41437;45.478;9.116;2023-02-17T10:06:20;27.10;;;19.92;;
55575;SDS011;41437;45.478;9.116;2023-02-17T10:09:29;30.95;;;18.98;;
55575;SDS011;41437;45.478;9.116;2023-02-17T10:12:35;25.98;;;18.33;;
55575;SDS011;41437;45.478;9.116;2023-02-17T10:15:40;29.30;;;19.10;;
55575;SDS011;41437;45.478;9.116;2023-02-17T10:18:48;28.45;;;18.60;;
55575;SDS011;41437;45.478;9.116;2023-02-17T10:21:56;27.08;;;17.42;;
55575;SDS011;41437;45.478;9.116;2023-02-17T10:25:12;23.02;;;16.73;;
55575;SDS011;41437;45.478;9.116;2023-02-17T10:28:20;19.52;;;14.85;;
55575;SDS011;41437;45.478;9.116;2023-02-17T10:31:41;24.52;;;15.10;;
55575;SDS011;41437;45.478;9.116;2023-02-17T10:34:47;21.35;;;16.40;;
55575;SDS011;41437;45.478;9.116;2023-02-17T10:38:12;19.48;;;14.75;;
55575;SDS011;41437;45.478;9.116;2023-02-17T10:41:19;19.10;;;14.40;;
55575;SDS011;41437;45.478;9.116;2023-02-17T10:44:24;23.77;;;14.85;;
55575;SDS011;41437;45.478;9.116;2023-02-17T10:47:25;25.00;;;16.03;;
55575;SDS011;41437;45.478;9.116;2023-02-17T10:50:28;23.63;;;16.27;;
55575;SDS011;41437;45.478;9.116;2023-02-17T10:53:32;28.13;;;15.65;;
55575;SDS011;41437;45.478;9.116;2023-02-17T10:56:37;21.38;;;16.00;;
55575;SDS011;41437;45.478;9.116;2023-02-17T10:59:43;23.92;;;16.73;;
55575;SDS011;41437;45.478;9.116;2023-02-17T11:02:46;24.15;;;16.60;;
55575;SDS011;41437;45.478;9.116;2023-02-17T11:05:51;24.75;;;15.85;;
55575;SDS011;41437;45.478;9.116;2023-02-17T11:08:56;23.58;;;15.82;;
55575;SDS011;41437;45.478;9.116;2023-02-17T11:12:00;21.80;;;15.05;;
55575;SDS011;41437;45.478;9.116;2023-02-17T11:18:18;23.23;;;15.73;;
55575;SDS011;41437;45.478;9.116;2023-02-17T11:21:21;22.95;;;16.33;;
55575;SDS011;41437;45.478;9.116;2023-02-17T11:24:23;21.83;;;16.35;;
55575;SDS011;41437;45.478;9.116;2023-02-17T11:27:25;23.90;;;16.50;;
55575;SDS011;41437;45.478;9.116;2023-02-17T11:30:28;23.17;;;16.20;;
55575;SDS011;41437;45.478;9.116;2023-02-17T11:33:33;26.38;;;15.57;;
55575;SDS011;41437;45.478;9.116;2023-02-17T11:36:36;26.85;;;15.30;;
55575;SDS011;41437;45.478;9.116;2023-02-17T11:39:39;20.63;;;14.07;;
55575;SDS011;41437;45.478;9.116;2023-02-17T11:42:41;23.17;;;15.18;;
55575;SDS011;41437;45.478;9.116;2023-02-17T11:45:47;22.17;;;14.88;;
55575;SDS011;41437;45.478;9.116;2023-02-17T11:52:45;25.33;;;15.05;;
55575;SDS011;41437;45.478;9.116;2023-02-17T11:55:59;19.42;;;13.40;;
55575;SDS011;41437;45.478;9.116;2023-02-17T11:59:17;19.80;;;14.10;;
55575;SDS011;41437;45.478;9.116;2023-02-17T12:02:36;20.25;;;14.43;;
55575;SDS011;41437;45.478;9.116;2023-02-17T12:05:50;18.90;;;14.45;;
55575;SDS011;41437;45.478;9.116;2023-02-17T12:09:07;23.25;;;16.40;;
55575;SDS011;41437;45.478;9.116;2023-02-17T12:12:19;23.30;;;14.88;;
55575;SDS011;41437;45.478;9.116;2023-02-17T12:15:30;20.85;;;14.27;;
55575;SDS011;41437;45.478;9.116;2023-02-17T12:18:47;19.08;;;13.57;;
55575;SDS011;41437;45.478;9.116;2023-02-17T12:21:56;17.08;;;12.70;;
55575;SDS011;41437;45.478;9.116;2023-02-17T12:25:23;19.88;;;13.98;;
55575;SDS011;41437;45.478;9.116;2023-02-17T12:35:29;20.60;;;13.82;;
55575;SDS011;41437;45.478;9.116;2023-02-17T12:38:38;26.33;;;13.77;;
55575;SDS011;41437;45.478;9.116;2023-02-17T12:41:44;22.52;;;14.02;;
55575;SDS011;41437;45.478;9.116;2023-02-17T12:44:50;22.13;;;14.52;;
55575;SDS011;41437;45.478;9.116;2023-02-17T12:47:56;17.55;;;13.88;;
55575;SDS011;41437;45.478;9.116;2023-02-17T12:51:05;23.55;;;15.55;;
55575;SDS011;41437;45.478;9.116;2023-02-17T12:54:13;22.92;;;14.82;;
55575;SDS011;41437;45.478;9.116;2023-02-17T12:57:19;22.38;;;14.60;;
55575;SDS011;41437;45.478;9.116;2023-02-17T13:00:26;20.95;;;14.38;;
55575;SDS011;41437;45.478;9.116;2023-02-17T13:03:35;21.77;;;15.07;;
55575;SDS011;41437;45.478;9.116;2023-02-17T13:06:39;21.73;;;15.07;;
55575;SDS011;41437;45.478;9.116;2023-02-17T13:09:45;21.63;;;15.57;;
55575;SDS011;41437;45.478;9.116;2023-02-17T13:13:00;23.80;;;15.82;;
55575;SDS011;41437;45.478;9.116;2023-02-17T13:16:04;26.23;;;16.20;;
55575;SDS011;41437;45.478;9.116;2023-02-17T13:19:09;24.70;;;15.55;;
55575;SDS011;41437;45.478;9.116;2023-02-17T13:22:31;24.08;;;15.35;;
55575;SDS011;41437;45.478;9.116;2023-02-17T13:25:34;25.10;;;14.90;;
55575;SDS011;41437;45.478;9.116;2023-02-17T13:28:37;22.45;;;15.10;;
55575;SDS011;41437;45.478;9.116;2023-02-17T13:31:49;24.83;;;15.07;;
55575;SDS011;41437;45.478;9.116;2023-02-17T13:34:57;20.77;;;14.60;;
55575;SDS011;41437;45.478;9.116;2023-02-17T13:38:08;22.02;;;15.05;;
55575;SDS011;41437;45.478;9.116;2023-02-17T13:41:11;19.80;;;14.55;;
55575;SDS011;41437;45.478;9.116;2023-02-17T13:44:17;19.33;;;13.45;;
55575;SDS011;41437;45.478;9.116;2023-02-17T13:47:27;21.10;;;14.00;;
55575;SDS011;41437;45.478;9.116;2023-02-17T13:50:35;18.98;;;13.82;;
55575;SDS011;41437;45.478;9.116;2023-02-17T13:53:39;24.45;;;14.35;;
55575;SDS011;41437;45.478;9.116;2023-02-17T13:56:42;17.80;;;12.77;;
55575;SDS011;41437;45.478;9.116;2023-02-17T13:59:50;20.00;;;13.70;;
55575;SDS011;41437;45.478;9.116;2023-02-17T14:02:54;21.17;;;13.90;;
55575;SDS011;41437;45.478;9.116;2023-02-17T14:05:58;19.17;;;13.18;;
55575;SDS011;41437;45.478;9.116;2023-02-17T14:09:11;21.67;;;13.10;;
55575;SDS011;41437;45.478;9.116;2023-02-17T14:12:18;22.33;;;12.52;;
55575;SDS011;41437;45.478;9.116;2023-02-17T14:15:24;32.33;;;13.18;;
55575;SDS011;41437;45.478;9.116;2023-02-17T14:18:31;23.33;;;13.88;;
55575;SDS011;41437;45.478;9.116;2023-02-17T14:21:38;21.35;;;13.10;;
55575;SDS011;41437;45.478;9.116;2023-02-17T14:24:43;20.08;;;13.77;;
55575;SDS011;41437;45.478;9.116;2023-02-17T14:27:45;19.55;;;12.95;;
55575;SDS011;41437;45.478;9.116;2023-02-17T14:33:51;22.13;;;13.82;;
55575;SDS011;41437;45.478;9.116;2023-02-17T14:37:06;24.63;;;12.98;;
55575;SDS011;41437;45.478;9.116;2023-02-17T14:40:13;20.10;;;13.00;;
55575;SDS011;41437;45.478;9.116;2023-02-17T14:43:16;19.50;;;12.98;;
55575;SDS011;41437;45.478;9.116;2023-02-17T14:46:19;21.92;;;13.52;;
55575;SDS011;41437;45.478;9.116;2023-02-17T14:49:24;24.65;;;13.98;;
55575;SDS011;41437;45.478;9.116;2023-02-17T14:52:26;25.40;;;14.15;;
55575;SDS011;41437;45.478;9.116;2023-02-17T14:55:30;23.27;;;15.10;;
55575;SDS011;41437;45.478;9.116;2023-02-17T14:58:35;22.98;;;15.00;;
55575;SDS011;41437;45.478;9.116;2023-02-17T15:01:40;22.25;;;15.38;;
55575;SDS011;41437;45.478;9.116;2023-02-17T15:04:42;22.13;;;14.68;;
55575;SDS011;41437;45.478;9.116;2023-02-17T15:08:04;23.95;;;14.25;;
55575;SDS011;41437;45.478;9.116;2023-02-17T15:11:13;31.58;;;14.85;;
55575;SDS011;41437;45.478;9.116;2023-02-17T15:14:19;25.15;;;14.75;;
55575;SDS011;41437;45.478;9.116;2023-02-17T15:17:21;22.85;;;14.93;;
55575;SDS011;41437;45.478;9.116;2023-02-17T15:20:23;22.42;;;15.85;;
55575;SDS011;41437;45.478;9.116;2023-02-17T15:23:25;22.63;;;15.32;;
55575;SDS011;41437;45.478;9.116;2023-02-17T15:26:33;23.83;;;15.55;;
55575;SDS011;41437;45.478;9.116;2023-02-17T15:29:34;23.95;;;15.52;;
55575;SDS011;41437;45.478;9.116;2023-02-17T15:32:38;22.42;;;15.90;;
55575;SDS011;41437;45.478;9.116;2023-02-17T15:38:44;25.48;;;16.75;;
55575;SDS011;41437;45.478;9.116;2023-02-17T15:41:47;24.92;;;15.52;;
55575;SDS011;41437;45.478;9.116;2023-02-17T15:44:49;23.83;;;15.27;;
55575;SDS011;41437;45.478;9.116;2023-02-17T15:47:55;21.80;;;14.52;;
55575;SDS011;41437;45.478;9.116;2023-02-17T15:51:02;23.05;;;14.68;;
55575;SDS011;41437;45.478;9.116;2023-02-17T15:54:04;23.70;;;15.20;;
55575;SDS011;41437;45.478;9.116;2023-02-17T15:57:09;24.25;;;15.23;;
55575;SDS011;41437;45.478;9.116;2023-02-17T16:00:20;23.90;;;15.68;;
55575;SDS011;41437;45.478;9.116;2023-02-17T16:03:23;22.40;;;14.95;;
55575;SDS011;41437;45.478;9.116;2023-02-17T16:06:25;20.63;;;15.23;;
55575;SDS011;41437;45.478;9.116;2023-02-17T16:09:27;22.50;;;15.27;;
55575;SDS011;41437;45.478;9.116;2023-02-17T16:12:30;22.35;;;15.85;;
55575;SDS011;41437;45.478;9.116;2023-02-17T16:15:32;24.17;;;15.88;;
55575;SDS011;41437;45.478;9.116;2023-02-17T16:18:34;23.08;;;15.85;;
55575;SDS011;41437;45.478;9.116;2023-02-17T16:21:36;22.70;;;15.02;;
55575;SDS011;41437;45.478;9.116;2023-02-17T16:24:37;26.90;;;16.05;;
55575;SDS011;41437;45.478;9.116;2023-02-17T16:27:40;26.08;;;16.33;;
55575;SDS011;41437;45.478;9.116;2023-02-17T16:30:43;25.33;;;15.30;;
55575;SDS011;41437;45.478;9.116;2023-02-17T16:33:45;25.08;;;16.35;;
55575;SDS011;41437;45.478;9.116;2023-02-17T16:36:47;22.27;;;16.35;;
55575;SDS011;41437;45.478;9.116;2023-02-17T16:39:49;25.20;;;16.88;;
55575;SDS011;41437;45.478;9.116;2023-02-17T16:42:52;24.08;;;16.38;;
55575;SDS011;41437;45.478;9.116;2023-02-17T16:45:54;25.47;;;17.30;;
55575;SDS011;41437;45.478;9.116;2023-02-17T16:48:57;29.75;;;17.75;;
55575;SDS011;41437;45.478;9.116;2023-02-17T16:52:01;26.98;;;17.27;;
55575;SDS011;41437;45.478;9.116;2023-02-17T16:55:05;22.58;;;16.75;;
55575;SDS011;41437;45.478;9.116;2023-02-17T16:58:12;26.70;;;17.42;;
55575;SDS011;41437;45.478;9.116;2023-02-17T17:01:15;25.40;;;18.08;;
55575;SDS011;41437;45.478;9.116;2023-02-17T17:04:17;24.50;;;17.80;;
55575;SDS011;41437;45.478;9.116;2023-02-17T17:07:22;28.63;;;18.73;;
55575;SDS011;41437;45.478;9.116;2023-02-17T17:10:24;28.52;;;17.10;;
55575;SDS011;41437;45.478;9.116;2023-02-17T17:13:28;26.60;;;16.75;;
55575;SDS011;41437;45.478;9.116;2023-02-17T17:16:30;24.83;;;16.35;;
55575;SDS011;41437;45.478;9.116;2023-02-17T17:19:34;26.35;;;17.67;;
55575;SDS011;41437;45.478;9.116;2023-02-17T17:22:36;28.17;;;18.05;;
55575;SDS011;41437;45.478;9.116;2023-02-17T17:25:38;30.35;;;18.15;;
55575;SDS011;41437;45.478;9.116;2023-02-17T17:28:44;31.98;;;17.45;;
55575;SDS011;41437;45.478;9.116;2023-02-17T17:31:48;24.13;;;16.83;;
55575;SDS011;41437;45.478;9.116;2023-02-17T17:34:49;26.27;;;15.23;;
55575;SDS011;41437;45.478;9.116;2023-02-17T17:37:51;20.73;;;13.65;;
55575;SDS011;41437;45.478;9.116;2023-02-17T17:40:53;20.80;;;12.50;;
55575;SDS011;41437;45.478;9.116;2023-02-17T17:43:57;20.83;;;11.80;;
55575;SDS011;41437;45.478;9.116;2023-02-17T17:47:01;20.75;;;10.85;;
55575;SDS011;41437;45.478;9.116;2023-02-17T17:50:06;21.00;;;11.05;;
55575;SDS011;41437;45.478;9.116;2023-02-17T17:53:10;17.15;;;10.30;;
55575;SDS011;41437;45.478;9.116;2023-02-17T17:56:12;14.27;;;10.37;;
55575;SDS011;41437;45.478;9.116;2023-02-17T18:02:21;18.70;;;10.55;;
55575;SDS011;41437;45.478;9.116;2023-02-17T18:05:24;18.13;;;9.85;;
55575;SDS011;41437;45.478;9.116;2023-02-17T18:08:28;14.60;;;10.30;;
55575;SDS011;41437;45.478;9.116;2023-02-17T18:11:30;15.55;;;10.07;;
55575;SDS011;41437;45.478;9.116;2023-02-17T18:14:35;16.88;;;9.70;;
55575;SDS011;41437;45.478;9.116;2023-02-17T18:17:39;15.13;;;9.88;;
55575;SDS011;41437;45.478;9.116;2023-02-17T18:20:42;15.90;;;10.43;;
55575;SDS011;41437;45.478;9.116;2023-02-17T18:23:44;18.08;;;10.18;;
55575;SDS011;41437;45.478;9.116;2023-02-17T18:26:45;13.40;;;10.10;;
55575;SDS011;41437;45.478;9.116;2023-02-17T18:29:52;13.85;;;9.80;;
55575;SDS011;41437;45.478;9.116;2023-02-17T18:32:54;13.50;;;9.60;;
55575;SDS011;41437;45.478;9.116;2023-02-17T18:35:56;15.98;;;10.15;;
55575;SDS011;41437;45.478;9.116;2023-02-17T18:38:57;14.88;;;9.90;;